createdAt,value
2022-11-13T00:03:18.770Z,14.71
2022-11-13T00:08:43.240Z,14.69
2022-11-13T00:14:07.535Z,14.69
2022-11-13T00:19:30.964Z,14.66
2022-11-13T00:24:54.447Z,14.64
2022-11-13T00:30:19.697Z,14.63
2022-11-13T00:35:43.493Z,14.65
2022-11-13T00:41:07.069Z,14.64
2022-11-13T00:46:30.923Z,14.64
2022-11-13T00:51:54.676Z,14.62
2022-11-13T00:57:17.969Z,14.59
2022-11-13T01:02:41.297Z,14.55
2022-11-13T01:08:05.688Z,14.53
2022-11-13T01:13:29.463Z,14.53
2022-11-13T01:18:55.565Z,14.50
2022-11-13T01:24:20.659Z,14.50
2022-11-13T01:29:44.479Z,14.47
2022-11-13T01:35:08.539Z,14.44
2022-11-13T01:40:32.119Z,14.42
2022-11-13T01:46:05.059Z,14.42
2022-11-13T01:51:33.988Z,14.39
2022-11-13T01:56:59.192Z,14.39
2022-11-13T02:02:22.928Z,14.32
2022-11-13T02:07:46.874Z,14.35
2022-11-13T02:13:11.303Z,14.34
2022-11-13T02:18:37.691Z,14.36
2022-11-13T02:24:14.441Z,14.36
2022-11-13T02:29:38.270Z,14.31
2022-11-13T02:35:01.683Z,14.29
2022-11-13T02:40:26.255Z,14.30
2022-11-13T02:45:49.612Z,14.27
2022-11-13T02:51:14.361Z,14.23
2022-11-13T02:56:37.573Z,14.28
2022-11-13T03:02:01.001Z,14.24
2022-11-13T03:07:24.511Z,14.26
2022-11-13T03:12:48.219Z,14.28
2022-11-13T03:18:12.827Z,14.29
2022-11-13T03:23:36.600Z,14.20
2022-11-13T03:29:00.109Z,14.25
2022-11-13T03:34:23.589Z,14.23
2022-11-13T03:39:47.148Z,14.23
2022-11-13T03:45:11.109Z,14.19
2022-11-13T03:50:34.847Z,14.19
2022-11-13T03:55:58.438Z,14.19
2022-11-13T04:01:21.871Z,14.19
2022-11-13T04:06:45.641Z,14.16
2022-11-13T04:12:09.345Z,14.11
2022-11-13T04:17:33.339Z,14.09
2022-11-13T04:22:58.324Z,14.11
2022-11-13T04:28:22.728Z,14.13
2022-11-13T04:33:45.989Z,14.08
2022-11-13T04:39:10.108Z,14.11
2022-11-13T04:44:33.344Z,14.11
2022-11-13T04:49:57.027Z,14.14
2022-11-13T04:55:20.381Z,14.14
2022-11-13T05:00:44.110Z,14.08
2022-11-13T05:06:10.359Z,14.08
2022-11-13T05:11:34.364Z,14.11
2022-11-13T05:16:58.010Z,14.00
2022-11-13T05:22:21.952Z,13.97
2022-11-13T05:27:45.404Z,13.99
2022-11-13T05:33:09.007Z,13.99
2022-11-13T05:38:33.391Z,14.01
2022-11-13T05:43:59.836Z,14.00
2022-11-13T05:49:23.553Z,13.97
2022-11-13T05:54:47.207Z,13.95
2022-11-13T06:00:11.931Z,13.95
2022-11-13T06:05:36.837Z,13.97
2022-11-13T06:11:02.727Z,13.97
2022-11-13T06:16:29.076Z,13.94
2022-11-13T06:21:53.084Z,13.93
2022-11-13T06:27:16.358Z,13.88
2022-11-13T06:32:39.996Z,13.76
2022-11-13T06:38:03.505Z,13.76
2022-11-13T06:43:27.388Z,13.75
2022-11-13T06:48:51.235Z,13.79
2022-11-13T06:54:15.300Z,13.84
2022-11-13T06:59:39.884Z,13.80
2022-11-13T07:05:03.111Z,13.78
2022-11-13T07:10:26.438Z,13.84
2022-11-13T07:15:49.853Z,13.89
2022-11-13T07:21:14.441Z,13.85
2022-11-13T07:26:38.094Z,13.89
2022-11-13T07:32:01.514Z,13.91
2022-11-13T07:37:25.287Z,13.85
2022-11-13T07:42:48.915Z,13.77
2022-11-13T07:48:12.564Z,13.86
2022-11-13T07:53:36.242Z,13.93
2022-11-13T07:58:59.595Z,13.97
2022-11-13T08:04:23.285Z,13.89
2022-11-13T08:09:46.644Z,13.98
2022-11-13T08:15:13.663Z,13.91
2022-11-13T08:20:37.854Z,14.00
2022-11-13T08:26:06.542Z,14.04
2022-11-13T08:31:29.949Z,14.08
2022-11-13T08:36:53.445Z,14.06
2022-11-13T08:42:17.319Z,13.99
2022-11-13T08:47:41.065Z,14.04
2022-11-13T08:53:04.567Z,14.01
2022-11-13T08:58:28.687Z,13.95
2022-11-13T09:03:53.027Z,14.61
2022-11-13T09:09:16.514Z,14.11
2022-11-13T09:14:40.284Z,13.99
2022-11-13T09:20:04.948Z,13.93
2022-11-13T09:25:36.899Z,13.95
2022-11-13T09:30:56.662Z,13.85
2022-11-13T09:36:20.609Z,13.83
2022-11-13T09:41:47.219Z,13.83
2022-11-13T09:47:20.077Z,13.78
2022-11-13T09:52:45.731Z,13.82
2022-11-13T09:58:22.232Z,13.86
2022-11-13T10:04:04.727Z,13.84
2022-11-13T10:09:28.778Z,13.76
2022-11-13T10:14:54.998Z,13.85
2022-11-13T10:20:24.294Z,13.95
2022-11-13T10:25:51.895Z,13.86
2022-11-13T10:31:15.832Z,13.90
2022-11-13T10:36:55.892Z,13.93
2022-11-13T10:42:30.971Z,13.80
2022-11-13T10:48:04.349Z,13.79
2022-11-13T10:53:20.654Z,13.71
2022-11-13T10:58:44.356Z,13.66
2022-11-13T11:04:10.501Z,13.73
2022-11-13T11:09:37.455Z,13.72
2022-11-13T11:15:04.969Z,13.76
2022-11-13T11:20:34.731Z,13.82
2022-11-13T11:26:13.230Z,13.76
2022-11-13T11:32:03.920Z,13.67
2022-11-13T11:37:33.159Z,13.66
2022-11-13T11:43:17.671Z,13.75
2022-11-13T11:48:41.936Z,13.70
2022-11-13T11:54:30.850Z,13.66
2022-11-13T12:00:01.869Z,13.68
2022-11-13T12:05:31.497Z,13.69
2022-11-13T12:11:19.018Z,13.66
2022-11-13T12:17:15.990Z,14.26
2022-11-13T12:22:42.903Z,13.72
2022-11-13T12:28:18.892Z,13.61
2022-11-13T12:34:01.719Z,13.64
2022-11-13T12:39:34.074Z,13.49
2022-11-13T12:45:12.266Z,13.49
2022-11-13T12:50:36.372Z,13.50
2022-11-13T12:56:02.645Z,13.44
2022-11-13T13:01:32.360Z,13.40
2022-11-13T13:07:05.002Z,13.50
2022-11-13T13:12:37.419Z,13.60
2022-11-13T13:18:19.247Z,14.00
2022-11-13T13:23:45.983Z,13.63
2022-11-13T13:29:24.611Z,13.51
2022-11-13T13:35:00.359Z,13.62
2022-11-13T13:40:49.645Z,13.63
2022-11-13T13:46:19.883Z,13.57
2022-11-13T13:51:46.326Z,13.28
2022-11-13T13:57:12.918Z,13.18
2022-11-13T14:02:39.484Z,13.10
2022-11-13T14:08:07.613Z,13.42
2022-11-13T14:13:31.453Z,13.57
2022-11-13T14:18:58.074Z,13.69
2022-11-13T14:24:27.062Z,13.62
2022-11-13T14:29:53.501Z,13.36
2022-11-13T14:35:22.519Z,13.26
2022-11-13T14:40:49.037Z,13.05
2022-11-13T14:46:33.901Z,13.00
2022-11-13T14:52:00.314Z,12.92
2022-11-13T14:57:23.800Z,12.86
2022-11-13T15:02:47.457Z,12.82
2022-11-13T15:08:13.908Z,12.69
2022-11-13T15:13:37.336Z,12.72
2022-11-13T15:19:04.149Z,12.70
2022-11-13T15:24:28.260Z,13.05
2022-11-13T15:29:51.537Z,12.83
2022-11-13T15:35:17.939Z,12.82
2022-11-13T15:40:41.656Z,12.78
2022-11-13T15:46:05.146Z,12.77
2022-11-13T15:51:49.848Z,12.76
2022-11-13T15:57:16.133Z,12.79
2022-11-13T16:02:41.533Z,12.71
2022-11-13T16:08:08.039Z,12.57
2022-11-13T16:13:35.551Z,12.51
2022-11-13T16:19:00.548Z,12.51
2022-11-13T16:24:24.484Z,12.47
2022-11-13T16:29:47.924Z,12.42
2022-11-13T16:35:16.362Z,12.42
2022-11-13T16:40:43.448Z,12.33
2022-11-13T16:46:32.106Z,12.30
2022-11-13T16:51:55.632Z,12.32
2022-11-13T16:57:19.922Z,12.28
2022-11-13T17:02:43.831Z,12.41
2022-11-13T17:08:07.544Z,12.36
2022-11-13T17:13:31.421Z,12.24
2022-11-13T17:18:56.230Z,12.27
2022-11-13T17:24:23.837Z,12.17
2022-11-13T17:29:47.433Z,12.17
2022-11-13T17:35:13.696Z,12.27
2022-11-13T17:40:37.511Z,12.17
2022-11-13T17:46:01.172Z,12.18
2022-11-13T17:51:25.107Z,12.14
2022-11-13T17:56:48.782Z,12.08
2022-11-13T18:02:15.660Z,12.92
2022-11-13T18:07:42.887Z,12.29
2022-11-13T18:13:06.994Z,12.24
2022-11-13T18:18:30.733Z,12.26
2022-11-13T18:23:59.440Z,12.05
2022-11-13T18:29:22.845Z,11.95
2022-11-13T18:34:46.120Z,11.96
2022-11-13T18:40:10.895Z,12.00
2022-11-13T18:45:34.454Z,11.91
2022-11-13T18:50:59.959Z,11.97
2022-11-13T18:56:26.219Z,11.95
2022-11-13T19:01:49.959Z,12.05
2022-11-13T19:07:13.701Z,11.98
2022-11-13T19:12:43.453Z,11.97
2022-11-13T19:18:08.433Z,11.92
2022-11-13T19:23:31.712Z,11.89
2022-11-13T19:28:56.388Z,11.77
2022-11-13T19:34:19.632Z,11.82
2022-11-13T19:39:43.473Z,11.80
2022-11-13T19:45:08.148Z,11.75
2022-11-13T19:50:32.016Z,11.64
2022-11-13T19:55:56.658Z,11.49
2022-11-13T20:01:23.037Z,11.54
2022-11-13T20:06:46.628Z,11.51
2022-11-13T20:12:10.550Z,11.51
2022-11-13T20:17:34.406Z,11.35
2022-11-13T20:23:04.213Z,11.33
2022-11-13T20:28:30.272Z,11.28
2022-11-13T20:33:56.252Z,11.26
2022-11-13T20:39:20.231Z,11.12
2022-11-13T20:44:43.492Z,11.05
2022-11-13T20:50:08.813Z,11.02
2022-11-13T20:55:33.690Z,11.02
2022-11-13T21:01:09.145Z,10.98
2022-11-13T21:06:32.971Z,11.01
2022-11-13T21:11:56.392Z,10.99
2022-11-13T21:17:19.954Z,10.85
2022-11-13T21:22:43.730Z,10.72
2022-11-13T21:28:07.652Z,10.60
2022-11-13T21:33:33.362Z,10.54
2022-11-13T21:38:57.789Z,10.62
2022-11-13T21:44:21.368Z,10.53
2022-11-13T21:49:44.806Z,10.47
2022-11-13T21:55:10.114Z,10.45
2022-11-13T22:00:34.380Z,10.48
2022-11-13T22:06:20.364Z,10.48
2022-11-13T22:11:43.997Z,10.48
2022-11-13T22:17:07.289Z,10.47
2022-11-13T22:22:31.155Z,10.48
2022-11-13T22:27:54.377Z,10.52
2022-11-13T22:33:17.861Z,10.46
2022-11-13T22:38:43.089Z,10.46
2022-11-13T22:44:08.916Z,10.52
2022-11-13T22:49:32.451Z,10.53
2022-11-13T22:54:55.862Z,10.31
2022-11-13T23:00:21.469Z,10.46
2022-11-13T23:05:45.113Z,10.31
2022-11-13T23:11:10.784Z,10.24
2022-11-13T23:16:35.000Z,10.21
2022-11-13T23:21:58.289Z,10.10
2022-11-13T23:27:21.780Z,10.13
2022-11-13T23:32:45.258Z,10.14
2022-11-13T23:38:08.480Z,10.15
2022-11-13T23:44:06.662Z,9.95
2022-11-13T23:48:59.108Z,9.75
2022-11-13T23:54:22.629Z,9.66
2022-11-13T23:59:46.247Z,9.58
